Accueil
METAR-TAF:

METAR-TAF

Aéroports :

Aéroport international Angoulême-Cognac

Angoulême, France

latitude: 45-43-46N, longitude: 00-13-08E, altitude: 132 m

Observation

Le bulletin a été fait il y a 34 minutes, à 14:00 UTC
Vent 11 kt de nord/nord-est
Température 7°C
Humidité 61%
Pression 1033 hPa
Visibilité 10 km ou plus
pas de nuages en-dessous de 1500 mètres et pas de cumulonimbus.

METAR: LFBU 221400Z AUTO 03011KT CAVOK 07/00 Q1033 NOSIG

Heure: 15:34 (14:34 UTC)

Prévision

Le bulletin a été fait il y a 3 heures et 34 minutes, à 11:00 UTC
Prévision valable du 22 à 12 UTC au 23 à 12 UTC
Vent 8 kt de nord-est
Visibilité 10 km ou plus
pas de nuages en-dessous de 1500 mètres et pas de cumulonimbus.
Probabilité 30% :
Temporairement
du 23 à 02 UTC au 23 à 07 UTC
Visibilité: 1500 m
Brouillard mince

TAF: LFBU 221100Z 2212/2312 04008KT CAVOK PROB30 TEMPO 2302/2307 1500 MIFG

Observations et prévisions météorologiques de plus de 4000 aéroports (messages METAR et TAF).

Les stations disponibles sont représentées par des disques jaunes et rouges sur la carte.

Passer la souris dessus pour voir le nom de la station.

Cliquer dessus pour voir les observations et prévisions météorologiques.

Pour changer de carte: cliquez sur les boutons verts avec une croix noire pour zoomer, sur le bouton vert avec un tiret pour effectuer un zoom arrière, ou sur les flèches vertes pour les cartes adjacentes.


METAR-TAF: